Time,TemperatureF,DewpointF,PressureIn,WindDirection,WindDirectionDegrees,WindSpeedMPH,WindSpeedGustMPH,Humidity,HourlyPrecipIn,Conditions,Clouds,dailyrainin,SolarRadiationWatts/m^2,SoftwareType,DateUTC
2013-06-16 00:00:00,66.6,64.5,29.96,SSE,162,2.0,7.0,93,0.08,,-RA,0.27,0.00,VWS V14.01,2013-06-16 05:00:00,
2013-06-16 00:05:00,66.6,64.5,29.96,South,190,4.0,4.0,93,0.07,,-RA,0.00,0.00,VWS V14.01,2013-06-16 05:05:00,
2013-06-16 00:11:00,66.6,64.5,29.95,WSW,238,8.0,8.0,93,0.06,,-RA,0.00,0.00,VWS V14.01,2013-06-16 05:11:00,
2013-06-16 00:16:00,66.6,64.5,29.93,SSW,207,0.0,2.0,93,0.04,,-RA,0.00,0.00,VWS V14.01,2013-06-16 05:16:00,
2013-06-16 00:22:00,66.6,64.5,29.92,SSW,207,3.0,5.0,93,0.03,,-RA,0.00,0.00,VWS V14.01,2013-06-16 05:22:00,
2013-06-16 00:27:00,66.6,64.5,29.91,SSW,213,2.0,4.0,93,0.03,,-RA,0.01,0.00,VWS V14.01,2013-06-16 05:27:00,
2013-06-16 00:32:00,66.6,64.5,29.90,SSW,213,2.0,3.0,93,0.02,,-RA,0.01,0.00,VWS V14.01,2013-06-16 05:32:00,
2013-06-16 00:37:00,66.6,64.5,29.90,SSW,210,1.0,3.0,93,0.02,,-RA,0.01,0.00,VWS V14.01,2013-06-16 05:37:00,
2013-06-16 00:42:00,66.6,64.5,29.88,SSW,210,1.0,4.0,93,0.02,,-RA,0.01,0.00,VWS V14.01,2013-06-16 05:42:00,
2013-06-16 00:47:00,66.4,64.3,29.88,SSW,210,1.0,3.0,93,0.01,,-RA,0.01,0.00,VWS V14.01,2013-06-16 05:47:00,
2013-06-16 00:53:00,66.4,64.6,29.87,SE,145,1.0,7.0,94,0.01,,-RA,0.01,0.00,VWS V14.01,2013-06-16 05:53:00,
2013-06-16 00:58:00,66.4,64.6,29.86,SE,146,0.0,5.0,94,0.01,,-RA,0.01,0.00,VWS V14.01,2013-06-16 05:58:00,
2013-06-16 01:03:00,66.4,64.6,29.86,SE,146,6.0,7.0,94,0.01,,-RA,0.01,0.00,VWS V14.01,2013-06-16 06:03:00,
2013-06-16 01:08:00,66.4,64.6,29.85,SSE,150,6.0,8.0,94,0.01,,-RA,0.01,0.00,VWS V14.01,2013-06-16 06:08:00,
2013-06-16 01:13:00,66.4,64.6,29.84,SSE,149,4.0,6.0,94,0.01,,-RA,0.01,0.00,VWS V14.01,2013-06-16 06:13:00,
2013-06-16 01:19:00,66.3,64.8,29.84,SSE,158,0.0,4.0,95,0.01,,-RA,0.01,0.00,VWS V14.01,2013-06-16 06:19:00,
2013-06-16 01:25:00,66.3,64.8,29.84,SSE,158,0.0,1.0,95,0.01,,-RA,0.01,0.00,VWS V14.01,2013-06-16 06:25:00,
2013-06-16 01:30:00,66.3,64.8,29.84,SSE,158,0.0,1.0,95,0.00,,-RA,0.01,0.00,VWS V14.01,2013-06-16 06:30:00,
2013-06-16 01:35:00,66.3,64.8,29.84,SSE,158,1.0,2.0,95,0.00,,-RA,0.01,0.00,VWS V14.01,2013-06-16 06:35:00,
2013-06-16 01:40:00,66.3,64.8,29.84,SSE,158,2.0,5.0,95,0.00,,-RA,0.01,0.00,VWS V14.01,2013-06-16 06:40:00,
2013-06-16 01:45:00,66.3,64.8,29.84,SSE,160,0.0,7.0,95,0.00,,-RA,0.01,0.00,VWS V14.01,2013-06-16 06:45:00,
2013-06-16 01:50:00,66.3,64.8,29.84,SSE,160,1.0,1.0,95,0.00,,-RA,0.01,0.00,VWS V14.01,2013-06-16 06:50:00,
2013-06-16 01:55:00,66.3,64.5,29.84,SSE,160,0.0,1.0,94,0.00,,-RA,0.01,0.00,VWS V14.01,2013-06-16 06:55:00,
2013-06-16 02:01:00,66.3,64.5,29.84,SSE,160,6.0,7.0,94,0.00,,CLR,0.01,0.00,VWS V14.01,2013-06-16 07:01:00,
2013-06-16 02:06:00,66.3,64.5,29.84,SSE,160,1.0,1.0,94,0.00,,CLR,0.01,0.00,VWS V14.01,2013-06-16 07:06:00,
2013-06-16 02:11:00,66.3,64.2,29.85,SSW,202,2.0,6.0,93,0.00,,CLR,0.01,0.00,VWS V14.01,2013-06-16 07:11:00,
2013-06-16 02:17:00,66.3,64.2,29.85,SSW,202,1.0,2.0,93,0.00,,CLR,0.01,0.00,VWS V14.01,2013-06-16 07:17:00,
2013-06-16 02:22:00,66.3,63.9,29.86,SSW,202,0.0,2.0,92,0.00,,CLR,0.01,0.00,VWS V14.01,2013-06-16 07:22:00,
2013-06-16 02:27:00,66.4,64.0,29.86,SSW,202,3.0,3.0,92,0.00,,CLR,0.01,0.00,VWS V14.01,2013-06-16 07:27:00,
2013-06-16 02:32:00,66.4,63.7,29.86,SSW,202,3.0,3.0,91,0.00,,CLR,0.01,0.00,VWS V14.01,2013-06-16 07:32:00,
2013-06-16 02:37:00,66.4,63.7,29.86,SSW,202,2.0,4.0,91,0.00,,CLR,0.01,0.00,VWS V14.01,2013-06-16 07:37:00,
2013-06-16 02:42:00,66.4,63.7,29.86,SSW,202,3.0,3.0,91,0.00,,CLR,0.01,0.00,VWS V14.01,2013-06-16 07:42:00,
2013-06-16 02:47:00,66.4,63.7,29.87,South,181,0.0,2.0,91,0.00,,CLR,0.01,0.00,VWS V14.01,2013-06-16 07:47:00,
2013-06-16 02:52:00,66.4,64.0,29.87,South,181,0.0,2.0,92,0.00,,CLR,0.01,0.00,VWS V14.01,2013-06-16 07:52:00,
2013-06-16 02:57:00,66.4,64.0,29.87,SSW,213,3.0,5.0,92,0.00,,CLR,0.01,0.00,VWS V14.01,2013-06-16 07:57:00,
2013-06-16 03:03:00,66.4,64.0,29.87,SSE,150,4.0,6.0,92,0.00,,CLR,0.01,0.00,VWS V14.01,2013-06-16 08:03:00,
2013-06-16 03:09:00,66.4,64.0,29.87,SSW,207,3.0,5.0,92,0.00,,CLR,0.01,0.00,VWS V14.01,2013-06-16 08:09:00,
2013-06-16 03:14:00,66.4,64.0,29.87,SW,236,8.0,10.0,92,0.00,,CLR,0.01,0.00,VWS V14.01,2013-06-16 08:14:00,
2013-06-16 03:19:00,66.4,64.0,29.87,SW,214,1.0,3.0,92,0.00,,CLR,0.01,0.00,VWS V14.01,2013-06-16 08:19:00,
2013-06-16 03:24:00,66.4,64.0,29.87,SSE,157,0.0,2.0,92,0.00,,CLR,0.01,0.00,VWS V14.01,2013-06-16 08:24:00,
2013-06-16 03:29:00,66.4,64.0,29.87,South,170,5.0,5.0,92,0.00,,CLR,0.01,0.00,VWS V14.01,2013-06-16 08:29:00,
2013-06-16 03:34:00,66.4,64.0,29.87,SW,233,1.0,3.0,92,0.00,,CLR,0.01,0.00,VWS V14.01,2013-06-16 08:34:00,
2013-06-16 03:39:00,66.4,64.0,29.87,SSW,208,1.0,4.0,92,0.00,,CLR,0.01,0.00,VWS V14.01,2013-06-16 08:39:00,
2013-06-16 03:44:00,66.4,64.0,29.88,South,186,3.0,5.0,92,0.00,,CLR,0.01,0.00,VWS V14.01,2013-06-16 08:44:00,
2013-06-16 03:49:00,66.4,64.0,29.87,SSE,167,0.0,4.0,92,0.00,,CLR,0.01,0.00,VWS V14.01,2013-06-16 08:49:00,
2013-06-16 03:55:00,66.3,63.9,29.87,SW,217,1.0,5.0,92,0.00,,CLR,0.01,0.00,VWS V14.01,2013-06-16 08:55:00,
2013-06-16 04:00:00,66.3,63.9,29.87,SW,221,3.0,7.0,92,0.00,,CLR,0.01,0.00,VWS V14.01,2013-06-16 09:00:00,
2013-06-16 04:05:00,66.3,63.9,29.87,SW,215,2.0,3.0,92,0.00,,CLR,0.01,0.00,VWS V14.01,2013-06-16 09:05:00,
2013-06-16 04:10:00,66.3,63.9,29.87,South,180,2.0,4.0,92,0.00,,CLR,0.01,0.00,VWS V14.01,2013-06-16 09:10:00,
2013-06-16 04:15:00,66.3,63.9,29.88,SSW,210,9.0,9.0,92,0.00,,CLR,0.01,0.00,VWS V14.01,2013-06-16 09:15:00,
2013-06-16 04:20:00,66.3,63.9,29.88,SSW,196,0.0,1.0,92,0.00,,CLR,0.01,0.00,VWS V14.01,2013-06-16 09:20:00,
2013-06-16 04:25:00,66.3,63.9,29.88,SSW,196,0.0,1.0,92,0.00,,CLR,0.01,0.00,VWS V14.01,2013-06-16 09:25:00,
2013-06-16 04:30:00,66.3,63.9,29.88,SSW,209,5.0,6.0,92,0.00,,CLR,0.01,0.00,VWS V14.01,2013-06-16 09:30:00,
2013-06-16 04:35:00,66.3,63.9,29.88,SW,215,4.0,6.0,92,0.00,,CLR,0.01,0.00,VWS V14.01,2013-06-16 09:35:00,
2013-06-16 04:40:00,66.4,63.7,29.88,SSW,202,2.0,4.0,91,0.00,,CLR,0.01,0.00,VWS V14.01,2013-06-16 09:40:00,
2013-06-16 04:46:00,66.4,63.7,29.87,SSW,203,3.0,3.0,91,0.00,,CLR,0.01,0.00,VWS V14.01,2013-06-16 09:46:00,
2013-06-16 04:51:00,66.3,63.6,29.87,SSW,203,0.0,1.0,91,0.00,,CLR,0.01,0.00,VWS V14.01,2013-06-16 09:51:00,
2013-06-16 04:56:00,66.3,63.6,29.87,SSW,203,0.0,2.0,91,0.00,,CLR,0.01,0.00,VWS V14.01,2013-06-16 09:56:00,
2013-06-16 05:01:00,66.3,63.6,29.88,SSW,203,0.0,2.0,91,0.00,,FEW120,0.01,0.00,VWS V14.01,2013-06-16 10:01:00,
2013-06-16 05:06:00,66.1,63.7,29.89,SSW,203,0.0,1.0,92,0.00,,FEW120,0.01,0.00,VWS V14.01,2013-06-16 10:06:00,
2013-06-16 05:11:00,66.1,63.7,29.89,SSW,205,0.0,1.0,92,0.00,,FEW120,0.01,0.00,VWS V14.01,2013-06-16 10:11:00,
2013-06-16 05:16:00,66.0,63.6,29.90,SSW,205,0.0,3.0,92,0.00,,FEW120,0.01,0.00,VWS V14.01,2013-06-16 10:16:00,
2013-06-16 05:21:00,66.0,63.6,29.90,SSW,205,0.0,0.0,92,0.00,,FEW120,0.01,0.00,VWS V14.01,2013-06-16 10:21:00,
2013-06-16 05:26:00,65.8,63.4,29.90,SSW,205,2.0,3.0,92,0.00,,FEW120,0.01,0.00,VWS V14.01,2013-06-16 10:26:00,
2013-06-16 05:31:00,65.8,63.7,29.91,SW,226,0.0,3.0,93,0.00,,FEW120,0.01,5.00,VWS V14.01,2013-06-16 10:31:00,
2013-06-16 05:36:00,65.8,63.7,29.91,SW,226,1.0,3.0,93,0.00,,FEW120,0.01,7.00,VWS V14.01,2013-06-16 10:36:00,
2013-06-16 05:41:00,65.8,63.7,29.91,SW,227,0.0,0.0,93,0.00,,FEW120,0.01,9.00,VWS V14.01,2013-06-16 10:41:00,
2013-06-16 05:46:00,65.8,63.7,29.91,SW,225,2.0,3.0,93,0.00,,FEW120,0.01,11.00,VWS V14.01,2013-06-16 10:46:00,
2013-06-16 05:51:00,65.8,63.7,29.91,SW,225,0.0,0.0,93,0.00,,FEW120,0.01,16.00,VWS V14.01,2013-06-16 10:51:00,
2013-06-16 05:56:00,65.8,63.7,29.91,SW,225,1.0,1.0,93,0.00,,FEW120,0.01,26.00,VWS V14.01,2013-06-16 10:56:00,
2013-06-16 06:01:00,65.8,64.0,29.91,SW,225,0.0,0.0,94,0.00,,CLR,0.01,32.00,VWS V14.01,2013-06-16 11:01:00,
2013-06-16 06:06:00,65.8,64.0,29.91,SW,225,0.0,3.0,94,0.00,,CLR,0.01,33.00,VWS V14.01,2013-06-16 11:06:00,
2013-06-16 06:11:00,65.8,64.0,29.91,SW,223,0.0,1.0,94,0.00,,CLR,0.01,39.00,VWS V14.01,2013-06-16 11:11:00,
2013-06-16 06:16:00,66.0,64.2,29.91,SW,223,0.0,1.0,94,0.00,,CLR,0.01,40.00,VWS V14.01,2013-06-16 11:16:00,
2013-06-16 06:21:00,66.0,64.2,29.91,SSW,213,3.0,4.0,94,0.00,,CLR,0.01,46.00,VWS V14.01,2013-06-16 11:21:00,
2013-06-16 06:27:00,66.1,64.3,29.91,SSW,213,2.0,2.0,94,0.00,,CLR,0.01,53.00,VWS V14.01,2013-06-16 11:27:00,
2013-06-16 06:32:00,66.1,64.0,29.91,SW,214,0.0,0.0,93,0.00,,CLR,0.01,69.00,VWS V14.01,2013-06-16 11:32:00,
2013-06-16 06:37:00,66.3,64.2,29.91,SSW,213,0.0,1.0,93,0.00,,CLR,0.01,67.00,VWS V14.01,2013-06-16 11:37:00,
2013-06-16 06:43:00,66.4,64.3,29.91,SSW,213,2.0,2.0,93,0.00,,CLR,0.01,81.00,VWS V14.01,2013-06-16 11:43:00,
2013-06-16 06:48:00,66.4,64.3,29.91,SSW,213,0.0,2.0,93,0.00,,CLR,0.01,137.00,VWS V14.01,2013-06-16 11:48:00,
2013-06-16 06:53:00,66.8,64.7,29.91,SSW,212,1.0,1.0,93,0.00,,CLR,0.01,178.00,VWS V14.01,2013-06-16 11:53:00,
2013-06-16 06:58:00,67.1,64.7,29.92,SSW,213,0.0,6.0,92,0.00,,CLR,0.01,250.00,VWS V14.01,2013-06-16 11:58:00,
2013-06-16 07:03:00,67.4,65.0,29.92,SW,218,1.0,6.0,92,0.00,,CLR,0.01,239.00,VWS V14.01,2013-06-16 12:03:00,
2013-06-16 07:08:00,67.6,64.9,29.92,SW,227,1.0,6.0,91,0.00,,CLR,0.01,148.00,VWS V14.01,2013-06-16 12:08:00,
2013-06-16 07:13:00,67.6,64.9,29.92,SSW,205,5.0,6.0,91,0.00,,CLR,0.01,163.00,VWS V14.01,2013-06-16 12:13:00,
2013-06-16 07:18:00,67.9,64.9,29.92,SW,225,4.0,5.0,90,0.00,,CLR,0.01,248.00,VWS V14.01,2013-06-16 12:18:00,
2013-06-16 07:23:00,68.3,65.3,29.92,SW,233,2.0,6.0,90,0.00,,CLR,0.01,272.00,VWS V14.01,2013-06-16 12:23:00,
2013-06-16 07:29:00,68.4,65.0,29.92,SW,229,2.0,6.0,89,0.00,,CLR,0.01,325.00,VWS V14.01,2013-06-16 12:29:00,
2013-06-16 07:34:00,68.6,64.9,29.92,SW,216,4.0,9.0,88,0.00,,CLR,0.01,352.00,VWS V14.01,2013-06-16 12:34:00,
2013-06-16 07:40:00,68.9,64.9,29.92,SW,214,5.0,6.0,87,0.00,,CLR,0.01,309.00,VWS V14.01,2013-06-16 12:40:00,
2013-06-16 07:46:00,69.4,65.0,29.92,SW,233,10.0,10.0,86,0.00,,CLR,0.01,209.00,VWS V14.01,2013-06-16 12:46:00,
2013-06-16 07:51:00,69.3,64.6,29.92,SW,222,2.0,9.0,85,0.00,,CLR,0.01,193.00,VWS V14.01,2013-06-16 12:51:00,
2013-06-16 07:56:00,69.3,64.6,29.92,SSW,200,2.0,6.0,85,0.00,,CLR,0.01,241.00,VWS V14.01,2013-06-16 12:56:00,
2013-06-16 08:01:00,69.4,64.7,29.92,WSW,243,3.0,7.0,85,0.00,,CLR,0.01,239.00,VWS V14.01,2013-06-16 13:01:00,
2013-06-16 08:07:00,69.4,64.7,29.93,SSW,207,3.0,4.0,85,0.00,,CLR,0.01,192.00,VWS V14.01,2013-06-16 13:07:00,
2013-06-16 08:12:00,69.6,65.2,29.92,SSW,203,1.0,3.0,86,0.00,,CLR,0.01,385.00,VWS V14.01,2013-06-16 13:12:00,
2013-06-16 08:17:00,69.8,65.1,29.92,SW,215,1.0,5.0,85,0.00,,CLR,0.01,206.00,VWS V14.01,2013-06-16 13:17:00,
2013-06-16 08:22:00,69.8,65.1,29.92,SW,216,5.0,8.0,85,0.00,,CLR,0.01,105.00,VWS V14.01,2013-06-16 13:22:00,
2013-06-16 08:27:00,69.6,64.9,29.92,SW,218,5.0,7.0,85,0.00,,CLR,0.01,91.00,VWS V14.01,2013-06-16 13:27:00,
2013-06-16 08:32:00,69.4,65.0,29.93,SW,221,0.0,6.0,86,0.00,,CLR,0.01,69.00,VWS V14.01,2013-06-16 13:32:00,
2013-06-16 08:37:00,69.4,65.0,29.93,SW,221,2.0,2.0,86,0.00,,CLR,0.01,62.00,VWS V14.01,2013-06-16 13:37:00,
2013-06-16 08:42:00,69.3,64.9,29.93,South,185,2.0,3.0,86,0.00,,CLR,0.01,70.00,VWS V14.01,2013-06-16 13:42:00,
2013-06-16 08:48:00,69.1,65.1,29.93,SSW,200,2.0,3.0,87,0.00,,CLR,0.01,56.00,VWS V14.01,2013-06-16 13:48:00,
2013-06-16 08:53:00,68.9,64.9,29.93,SSW,203,5.0,7.0,87,0.00,,CLR,0.01,74.00,VWS V14.01,2013-06-16 13:53:00,
2013-06-16 08:58:00,68.8,64.8,29.93,SW,231,1.0,4.0,87,0.00,,CLR,0.01,97.00,VWS V14.01,2013-06-16 13:58:00,
2013-06-16 09:03:00,68.9,65.2,29.93,SW,231,1.0,3.0,88,0.00,,BKN025,0.01,134.00,VWS V14.01,2013-06-16 14:03:00,
2013-06-16 09:08:00,68.9,65.2,29.93,SW,231,2.0,2.0,88,0.00,,BKN025,0.01,167.00,VWS V14.01,2013-06-16 14:08:00,
2013-06-16 09:13:00,68.9,65.2,29.93,SW,217,4.0,8.0,88,0.00,,BKN025,0.01,160.00,VWS V14.01,2013-06-16 14:13:00,
2013-06-16 09:18:00,69.1,65.4,29.92,SW,214,1.0,3.0,88,0.00,,BKN025,0.01,67.00,VWS V14.01,2013-06-16 14:18:00,
2013-06-16 09:23:00,68.9,64.9,29.92,SW,215,3.0,7.0,87,0.00,,BKN025,0.01,160.00,VWS V14.01,2013-06-16 14:23:00,
2013-06-16 09:28:00,68.9,64.9,29.92,SSW,207,6.0,6.0,87,0.00,,BKN025,0.01,204.00,VWS V14.01,2013-06-16 14:28:00,
2013-06-16 09:33:00,69.1,65.1,29.92,SW,227,3.0,9.0,87,0.00,,BKN025,0.01,123.00,VWS V14.01,2013-06-16 14:33:00,
2013-06-16 09:38:00,69.1,65.1,29.92,SW,221,2.0,5.0,87,0.00,,BKN025,0.01,195.00,VWS V14.01,2013-06-16 14:38:00,
2013-06-16 09:43:00,69.3,64.9,29.92,SSW,194,2.0,8.0,86,0.00,,BKN025,0.01,302.00,VWS V14.01,2013-06-16 14:43:00,
2013-06-16 09:48:00,69.4,65.0,29.92,SW,219,1.0,3.0,86,0.00,,BKN025,0.01,237.00,VWS V14.01,2013-06-16 14:48:00,
2013-06-16 09:53:00,69.8,65.4,29.92,SSE,161,2.0,7.0,86,0.00,,BKN025,0.01,274.00,VWS V14.01,2013-06-16 14:53:00,
2013-06-16 09:58:00,69.8,65.1,29.92,SW,215,6.0,8.0,85,0.00,,BKN025,0.01,257.00,VWS V14.01,2013-06-16 14:58:00,
2013-06-16 10:04:00,69.9,65.2,29.92,SW,217,3.0,13.0,85,0.00,,BKN025,0.01,255.00,VWS V14.01,2013-06-16 15:04:00,
2013-06-16 10:09:00,70.1,65.4,29.92,South,171,4.0,5.0,85,0.00,,BKN025,0.01,353.00,VWS V14.01,2013-06-16 15:09:00,
2013-06-16 10:14:00,70.6,66.2,29.92,SSW,213,0.0,2.0,86,0.00,,BKN025,0.01,446.00,VWS V14.01,2013-06-16 15:14:00,
2013-06-16 10:19:00,70.9,65.8,29.92,SW,223,5.0,8.0,84,0.00,,BKN025,0.01,366.00,VWS V14.01,2013-06-16 15:19:00,
2013-06-16 10:24:00,71.1,65.7,29.92,SSW,211,0.0,5.0,83,0.00,,BKN025,0.01,287.00,VWS V14.01,2013-06-16 15:24:00,
2013-06-16 10:30:00,71.5,65.7,29.92,SSW,204,1.0,6.0,82,0.00,,BKN025,0.01,153.00,VWS V14.01,2013-06-16 15:30:00,
2013-06-16 10:35:00,71.3,65.9,29.92,South,175,0.0,4.0,83,0.00,,BKN025,0.01,148.00,VWS V14.01,2013-06-16 15:35:00,
2013-06-16 10:40:00,71.3,65.9,29.91,South,175,4.0,5.0,83,0.00,,BKN025,0.01,297.00,VWS V14.01,2013-06-16 15:40:00,
2013-06-16 10:45:00,71.5,66.1,29.91,South,175,0.0,1.0,83,0.00,,BKN025,0.01,241.00,VWS V14.01,2013-06-16 15:45:00,
2013-06-16 10:50:00,71.6,65.8,29.91,WSW,253,4.0,4.0,82,0.00,,BKN025,0.01,116.00,VWS V14.01,2013-06-16 15:50:00,
2013-06-16 10:55:00,71.6,65.8,29.91,WSW,253,2.0,4.0,82,0.00,,BKN025,0.01,258.00,VWS V14.01,2013-06-16 15:55:00,
2013-06-16 11:00:00,71.8,66.4,29.91,WSW,248,1.0,3.0,83,0.00,,OVC013,0.01,188.00,VWS V14.01,2013-06-16 16:00:00,
2013-06-16 11:05:00,71.8,66.0,29.91,SW,223,1.0,2.0,82,0.00,,OVC013,0.01,192.00,VWS V14.01,2013-06-16 16:05:00,
2013-06-16 11:10:00,72.0,66.6,29.91,SW,223,0.0,1.0,83,0.00,,OVC013,0.01,330.00,VWS V14.01,2013-06-16 16:10:00,
2013-06-16 11:15:00,72.1,66.3,29.92,SW,228,1.0,3.0,82,0.00,,OVC013,0.01,294.00,VWS V14.01,2013-06-16 16:15:00,
2013-06-16 11:20:00,72.3,66.2,29.92,SSW,207,3.0,7.0,81,0.00,,OVC013,0.01,302.00,VWS V14.01,2013-06-16 16:20:00,
2013-06-16 11:25:00,72.5,65.6,29.92,West,259,5.0,7.0,79,0.00,,OVC013,0.01,396.00,VWS V14.01,2013-06-16 16:25:00,
2013-06-16 11:30:00,72.8,65.9,29.92,West,273,0.0,6.0,79,0.00,,OVC013,0.01,497.00,VWS V14.01,2013-06-16 16:30:00,
2013-06-16 11:35:00,73.0,66.1,29.92,SSE,162,0.0,2.0,79,0.00,,OVC013,0.01,355.00,VWS V14.01,2013-06-16 16:35:00,
2013-06-16 11:40:00,73.2,65.6,29.92,South,182,4.0,5.0,77,0.00,,OVC013,0.01,406.00,VWS V14.01,2013-06-16 16:40:00,
2013-06-16 11:46:00,73.2,65.6,29.92,SSW,205,1.0,5.0,77,0.00,,OVC013,0.01,466.00,VWS V14.01,2013-06-16 16:46:00,
2013-06-16 11:51:00,73.5,65.9,29.92,SW,236,4.0,6.0,77,0.00,,OVC013,0.01,392.00,VWS V14.01,2013-06-16 16:51:00,
2013-06-16 11:56:00,73.9,66.2,29.91,SSW,213,3.0,8.0,77,0.00,,OVC013,0.01,485.00,VWS V14.01,2013-06-16 16:56:00,
2013-06-16 12:01:00,74.0,66.0,29.91,SW,225,0.0,2.0,76,0.00,,OVC011,0.01,577.00,VWS V14.01,2013-06-16 17:01:00,
2013-06-16 12:06:00,74.4,66.0,29.91,SW,217,5.0,5.0,75,0.00,,OVC011,0.01,295.00,VWS V14.01,2013-06-16 17:06:00,
2013-06-16 12:11:00,74.2,66.5,29.91,SSW,210,4.0,7.0,77,0.00,,OVC011,0.01,193.00,VWS V14.01,2013-06-16 17:11:00,
2013-06-16 12:16:00,73.9,65.9,29.91,SW,229,1.0,5.0,76,0.00,,OVC011,0.01,494.00,VWS V14.01,2013-06-16 17:16:00,
2013-06-16 12:21:00,74.2,66.5,29.92,South,190,3.0,3.0,77,0.00,,OVC011,0.01,322.00,VWS V14.01,2013-06-16 17:21:00,
2013-06-16 12:26:00,74.2,66.2,29.91,SW,215,2.0,5.0,76,0.00,,OVC011,0.01,383.00,VWS V14.01,2013-06-16 17:26:00,
2013-06-16 12:31:00,74.4,66.0,29.91,SW,214,1.0,5.0,75,0.00,,OVC011,0.01,360.00,VWS V14.01,2013-06-16 17:31:00,
2013-06-16 12:36:00,74.6,66.5,29.91,SSW,213,4.0,9.0,76,0.00,,OVC011,0.01,364.00,VWS V14.01,2013-06-16 17:36:00,
2013-06-16 12:41:00,74.6,66.5,29.91,SW,215,4.0,7.0,76,0.00,,OVC011,0.01,475.00,VWS V14.01,2013-06-16 17:41:00,
2013-06-16 12:46:00,75.1,67.0,29.91,SSW,210,1.0,1.0,76,0.00,,OVC011,0.01,686.00,VWS V14.01,2013-06-16 17:46:00,
2013-06-16 12:51:00,75.4,66.2,29.91,SW,217,2.0,6.0,73,0.00,,OVC011,0.01,1116.00,VWS V14.01,2013-06-16 17:51:00,
2013-06-16 12:56:00,76.1,66.4,29.91,SSW,204,4.0,6.0,72,0.00,,OVC011,0.01,909.00,VWS V14.01,2013-06-16 17:56:00,
2013-06-16 13:02:00,76.7,66.6,29.91,WSW,238,4.0,7.0,71,0.00,,BKN014,0.01,703.00,VWS V14.01,2013-06-16 18:02:00,
2013-06-16 13:07:00,77.2,67.1,29.90,WSW,255,6.0,6.0,71,0.00,,BKN014,0.01,912.00,VWS V14.01,2013-06-16 18:07:00,
2013-06-16 13:12:00,77.6,67.1,29.90,South,173,2.0,4.0,70,0.00,,BKN014,0.01,977.00,VWS V14.01,2013-06-16 18:12:00,
2013-06-16 13:18:00,77.7,66.7,29.90,SSW,201,4.0,8.0,69,0.00,,BKN014,0.01,422.00,VWS V14.01,2013-06-16 18:18:00,
2013-06-16 13:23:00,77.9,66.1,29.90,SSW,212,4.0,5.0,67,0.00,,BKN014,0.01,921.00,VWS V14.01,2013-06-16 18:23:00,
2013-06-16 13:28:00,77.7,65.4,29.90,SW,225,9.0,9.0,66,0.00,,BKN014,0.01,976.00,VWS V14.01,2013-06-16 18:28:00,
2013-06-16 13:33:00,77.7,65.9,29.91,SW,216,2.0,4.0,67,0.00,,BKN014,0.01,979.00,VWS V14.01,2013-06-16 18:33:00,
2013-06-16 13:38:00,78.1,66.3,29.91,SSW,211,2.0,7.0,67,0.00,,BKN014,0.01,1020.00,VWS V14.01,2013-06-16 18:38:00,
2013-06-16 13:44:00,78.1,65.8,29.90,SW,227,4.0,5.0,66,0.00,,BKN014,0.01,1202.00,VWS V14.01,2013-06-16 18:44:00,
2013-06-16 13:49:00,78.5,65.8,29.91,WNW,291,9.0,9.0,65,0.00,,BKN014,0.01,1151.00,VWS V14.01,2013-06-16 18:49:00,
2013-06-16 13:54:00,78.3,65.6,29.91,SW,227,0.0,2.0,65,0.00,,BKN014,0.01,288.00,VWS V14.01,2013-06-16 18:54:00,
2013-06-16 13:59:00,78.1,67.1,29.90,SSE,150,1.0,7.0,69,0.00,,BKN014,0.01,304.00,VWS V14.01,2013-06-16 18:59:00,
2013-06-16 14:04:00,77.6,68.3,29.90,SSE,159,2.0,4.0,73,0.00,,BKN036,0.01,536.00,VWS V14.01,2013-06-16 19:04:00,
2013-06-16 14:09:00,77.4,68.1,29.90,SSW,204,3.0,6.0,73,0.00,,BKN036,0.01,262.00,VWS V14.01,2013-06-16 19:09:00,
2013-06-16 14:14:00,77.0,68.1,29.90,SSE,157,4.0,11.0,74,0.00,,BKN036,0.01,329.00,VWS V14.01,2013-06-16 19:14:00,
2013-06-16 14:20:00,77.2,68.3,29.90,SSE,167,2.0,6.0,74,0.00,,BKN036,0.01,292.00,VWS V14.01,2013-06-16 19:20:00,
2013-06-16 14:25:00,77.2,67.9,29.90,SSW,200,2.0,12.0,73,0.00,,BKN036,0.01,327.00,VWS V14.01,2013-06-16 19:25:00,
2013-06-16 14:30:00,77.0,68.1,29.90,SW,234,2.0,5.0,74,0.00,,BKN036,0.01,315.00,VWS V14.01,2013-06-16 19:30:00,
2013-06-16 14:35:00,77.0,68.1,29.89,SSW,213,2.0,4.0,74,0.00,,BKN036,0.01,330.00,VWS V14.01,2013-06-16 19:35:00,
2013-06-16 14:40:00,77.2,68.3,29.89,SSE,155,6.0,8.0,74,0.00,,BKN036,0.01,232.00,VWS V14.01,2013-06-16 19:40:00,
2013-06-16 14:45:00,76.8,67.9,29.89,South,181,1.0,2.0,74,0.00,,BKN036,0.01,362.00,VWS V14.01,2013-06-16 19:45:00,
2013-06-16 14:50:00,77.0,67.7,29.89,South,182,2.0,5.0,73,0.00,,BKN036,0.01,327.00,VWS V14.01,2013-06-16 19:50:00,
2013-06-16 14:55:00,77.4,68.5,29.89,SSE,159,5.0,7.0,74,0.00,,BKN036,0.01,322.00,VWS V14.01,2013-06-16 19:55:00,
2013-06-16 15:00:00,77.9,67.8,29.89,SW,221,1.0,6.0,71,0.00,,BKN049,0.01,413.00,VWS V14.01,2013-06-16 20:00:00,
2013-06-16 15:06:00,78.3,67.3,29.89,SW,227,6.0,11.0,69,0.00,,BKN049,0.01,1000.00,VWS V14.01,2013-06-16 20:06:00,
2013-06-16 15:11:00,78.6,66.7,29.89,SSW,211,2.0,7.0,67,0.00,,BKN049,0.01,1005.00,VWS V14.01,2013-06-16 20:11:00,
2013-06-16 15:16:00,78.8,67.4,29.89,WSW,238,5.0,6.0,68,0.00,,BKN049,0.01,914.00,VWS V14.01,2013-06-16 20:16:00,
2013-06-16 15:22:00,79.2,67.7,29.88,SSW,194,3.0,7.0,68,0.00,,BKN049,0.01,1067.00,VWS V14.01,2013-06-16 20:22:00,
2013-06-16 15:27:00,79.4,67.1,29.88,SSW,207,2.0,8.0,66,0.00,,BKN049,0.01,909.00,VWS V14.01,2013-06-16 20:27:00,
2013-06-16 15:32:00,79.8,66.1,29.88,SW,218,0.0,7.0,63,0.00,,BKN049,0.01,877.00,VWS V14.01,2013-06-16 20:32:00,
2013-06-16 15:37:00,80.3,67.0,29.88,West,269,7.0,7.0,64,0.00,,BKN049,0.01,904.00,VWS V14.01,2013-06-16 20:37:00,
2013-06-16 15:42:00,80.5,66.8,29.88,SSW,192,3.0,8.0,63,0.00,,BKN049,0.01,946.00,VWS V14.01,2013-06-16 20:42:00,
2013-06-16 15:47:00,80.5,66.8,29.88,SSW,207,4.0,9.0,63,0.00,,BKN049,0.01,232.00,VWS V14.01,2013-06-16 20:47:00,
2013-06-16 15:52:00,80.3,67.5,29.88,SW,234,4.0,7.0,65,0.00,,BKN049,0.01,940.00,VWS V14.01,2013-06-16 20:52:00,
2013-06-16 15:57:00,80.3,67.0,29.88,WSW,258,4.0,10.0,64,0.00,,BKN049,0.01,265.00,VWS V14.01,2013-06-16 20:57:00,
2013-06-16 16:02:00,80.3,67.5,29.88,SSW,205,4.0,10.0,65,0.00,,BKN049,0.01,831.00,VWS V14.01,2013-06-16 21:02:00,
2013-06-16 16:07:00,80.3,66.1,29.88,SSE,158,6.0,8.0,62,0.00,,BKN049,0.01,791.00,VWS V14.01,2013-06-16 21:07:00,
2013-06-16 16:12:00,80.7,66.5,29.88,SSW,205,3.0,7.0,62,0.00,,BKN049,0.01,840.00,VWS V14.01,2013-06-16 21:12:00,
2013-06-16 16:17:00,81.1,65.9,29.88,SSW,198,3.0,5.0,60,0.00,,BKN049,0.01,775.00,VWS V14.01,2013-06-16 21:17:00,
2013-06-16 16:22:00,81.4,66.7,29.88,SW,229,3.0,9.0,61,0.00,,BKN049,0.01,759.00,VWS V14.01,2013-06-16 21:22:00,
2013-06-16 16:27:00,81.6,67.3,29.88,WSW,253,4.0,8.0,62,0.00,,BKN049,0.01,814.00,VWS V14.01,2013-06-16 21:27:00,
2013-06-16 16:32:00,81.2,66.9,29.88,West,262,2.0,7.0,62,0.00,,BKN049,0.01,292.00,VWS V14.01,2013-06-16 21:32:00,
2013-06-16 16:37:00,80.9,67.1,29.88,West,265,6.0,7.0,63,0.00,,BKN049,0.01,789.00,VWS V14.01,2013-06-16 21:37:00,
2013-06-16 16:42:00,80.5,66.8,29.88,WNW,282,2.0,2.0,63,0.00,,BKN049,0.01,260.00,VWS V14.01,2013-06-16 21:42:00,
2013-06-16 16:48:00,80.7,66.5,29.87,WNW,290,5.0,11.0,62,0.00,,BKN049,0.01,265.00,VWS V14.01,2013-06-16 21:48:00,
2013-06-16 16:53:00,80.9,66.7,29.87,West,259,6.0,9.0,62,0.00,,BKN049,0.01,719.00,VWS V14.01,2013-06-16 21:53:00,
2013-06-16 16:58:00,81.2,67.9,29.87,SW,225,0.0,3.0,64,0.00,,BKN049,0.01,633.00,VWS V14.01,2013-06-16 21:58:00,
2013-06-16 17:03:00,81.1,66.9,29.87,SSW,206,0.0,4.0,62,0.00,,BKN046,0.01,160.00,VWS V14.01,2013-06-16 22:03:00,
2013-06-16 17:08:00,80.9,66.7,29.87,WSW,237,3.0,6.0,62,0.00,,BKN046,0.01,677.00,VWS V14.01,2013-06-16 22:08:00,
2013-06-16 17:13:00,81.4,67.1,29.87,SSW,196,5.0,5.0,62,0.00,,BKN046,0.01,615.00,VWS V14.01,2013-06-16 22:13:00,
2013-06-16 17:19:00,81.6,65.9,29.87,West,274,6.0,13.0,59,0.00,,BKN046,0.01,555.00,VWS V14.01,2013-06-16 22:19:00,
2013-06-16 17:24:00,81.2,66.9,29.87,WNW,283,7.0,10.0,62,0.00,,BKN046,0.01,536.00,VWS V14.01,2013-06-16 22:24:00,
2013-06-16 17:30:00,81.4,67.1,29.87,ESE,106,5.0,6.0,62,0.00,,BKN046,0.01,519.00,VWS V14.01,2013-06-16 22:30:00,
2013-06-16 17:36:00,81.6,66.9,29.87,West,266,4.0,8.0,61,0.00,,BKN046,0.01,529.00,VWS V14.01,2013-06-16 22:36:00,
2013-06-16 17:42:00,81.4,67.1,29.86,WNW,300,4.0,9.0,62,0.00,,BKN046,0.01,483.00,VWS V14.01,2013-06-16 22:42:00,
2013-06-16 17:47:00,81.2,66.9,29.86,WSW,257,3.0,8.0,62,0.00,,BKN046,0.01,499.00,VWS V14.01,2013-06-16 22:47:00,
2013-06-16 17:52:00,81.2,66.5,29.86,SW,232,6.0,10.0,61,0.00,,BKN046,0.01,461.00,VWS V14.01,2013-06-16 22:52:00,
2013-06-16 17:57:00,81.2,66.5,29.86,West,266,0.0,4.0,61,0.00,,BKN046,0.01,417.00,VWS V14.01,2013-06-16 22:57:00,
2013-06-16 18:02:00,81.6,67.3,29.86,WSW,252,5.0,5.0,62,0.00,,BKN050,0.01,394.00,VWS V14.01,2013-06-16 23:02:00,
2013-06-16 18:08:00,81.4,67.1,29.86,West,259,0.0,7.0,62,0.00,,BKN050,0.01,367.00,VWS V14.01,2013-06-16 23:08:00,
2013-06-16 18:13:00,81.2,66.9,29.86,WSW,252,3.0,5.0,62,0.00,,BKN050,0.01,352.00,VWS V14.01,2013-06-16 23:13:00,
2013-06-16 18:18:00,80.9,67.6,29.86,WNW,300,3.0,5.0,64,0.00,,BKN050,0.01,90.00,VWS V14.01,2013-06-16 23:18:00,
2013-06-16 18:24:00,80.5,67.2,29.86,West,277,0.0,5.0,64,0.00,,BKN050,0.01,366.00,VWS V14.01,2013-06-16 23:24:00,
2013-06-16 18:29:00,80.3,67.5,29.86,West,263,1.0,3.0,65,0.00,,BKN050,0.01,88.00,VWS V14.01,2013-06-16 23:29:00,
2013-06-16 18:34:00,80.1,66.8,29.86,West,265,3.0,7.0,64,0.00,,BKN050,0.01,70.00,VWS V14.01,2013-06-16 23:34:00,
2013-06-16 18:39:00,79.9,67.1,29.86,WSW,255,4.0,4.0,65,0.00,,BKN050,0.01,279.00,VWS V14.01,2013-06-16 23:39:00,
2013-06-16 18:44:00,80.1,66.8,29.86,West,261,5.0,8.0,64,0.00,,BKN050,0.01,214.00,VWS V14.01,2013-06-16 23:44:00,
2013-06-16 18:49:00,80.1,66.8,29.86,WSW,254,4.0,6.0,64,0.00,,BKN050,0.01,199.00,VWS V14.01,2013-06-16 23:49:00,
2013-06-16 18:54:00,80.1,67.3,29.86,WSW,257,5.0,6.0,65,0.00,,BKN050,0.01,241.00,VWS V14.01,2013-06-16 23:54:00,
2013-06-16 18:59:00,80.3,67.0,29.86,West,264,3.0,6.0,64,0.00,,BKN050,0.01,130.00,VWS V14.01,2013-06-16 23:59:00,
2013-06-16 19:04:00,80.3,66.6,29.86,West,261,6.0,8.0,63,0.00,,BKN050,0.01,193.00,VWS V14.01,2013-06-17 00:04:00,
2013-06-16 19:10:00,80.1,67.3,29.86,West,261,0.0,3.0,65,0.00,,BKN050,0.01,69.00,VWS V14.01,2013-06-17 00:10:00,
2013-06-16 19:15:00,79.8,67.4,29.86,West,259,4.0,4.0,66,0.00,,BKN050,0.01,79.00,VWS V14.01,2013-06-17 00:15:00,
2013-06-16 19:20:00,79.6,67.2,29.86,West,269,2.0,7.0,66,0.00,,BKN050,0.01,162.00,VWS V14.01,2013-06-17 00:20:00,
2013-06-16 19:25:00,79.8,67.0,29.86,West,269,2.0,6.0,65,0.00,,BKN050,0.01,134.00,VWS V14.01,2013-06-17 00:25:00,
2013-06-16 19:30:00,79.8,67.0,29.86,West,268,0.0,2.0,65,0.00,,BKN050,0.01,63.00,VWS V14.01,2013-06-17 00:30:00,
2013-06-16 19:35:00,79.9,67.1,29.86,West,267,0.0,1.0,65,0.00,,BKN050,0.01,91.00,VWS V14.01,2013-06-17 00:35:00,
2013-06-16 19:40:00,79.9,67.1,29.86,West,267,2.0,5.0,65,0.00,,BKN050,0.01,35.00,VWS V14.01,2013-06-17 00:40:00,
2013-06-16 19:45:00,79.6,66.8,29.86,West,267,2.0,3.0,65,0.00,,BKN050,0.01,33.00,VWS V14.01,2013-06-17 00:45:00,
2013-06-16 19:50:00,79.2,66.9,29.86,West,259,3.0,5.0,66,0.00,,BKN050,0.01,30.00,VWS V14.01,2013-06-17 00:50:00,
2013-06-16 19:55:00,79.0,66.7,29.86,WSW,254,3.0,3.0,66,0.00,,BKN050,0.01,25.00,VWS V14.01,2013-06-17 00:55:00,
2013-06-16 20:00:00,78.8,66.9,29.86,WSW,254,0.0,3.0,67,0.00,,BKN031,0.01,21.00,VWS V14.01,2013-06-17 01:00:00,
2013-06-16 20:05:00,78.5,67.1,29.86,WSW,254,0.0,0.0,68,0.00,,BKN031,0.01,18.00,VWS V14.01,2013-06-17 01:05:00,
2013-06-16 20:11:00,78.3,67.3,29.86,WSW,254,0.0,0.0,69,0.00,,BKN031,0.01,14.00,VWS V14.01,2013-06-17 01:11:00,
2013-06-16 20:16:00,78.1,67.1,29.85,WSW,254,0.0,0.0,69,0.00,,BKN031,0.01,11.00,VWS V14.01,2013-06-17 01:16:00,
2013-06-16 20:21:00,77.7,67.1,29.85,WSW,254,0.0,0.0,70,0.00,,BKN031,0.01,7.00,VWS V14.01,2013-06-17 01:21:00,
2013-06-16 20:26:00,77.6,67.5,29.85,WSW,254,0.0,0.0,71,0.00,,BKN031,0.01,5.00,VWS V14.01,2013-06-17 01:26:00,
2013-06-16 20:31:00,77.2,67.5,29.85,WSW,254,0.0,0.0,72,0.00,,BKN031,0.01,0.00,VWS V14.01,2013-06-17 01:31:00,
2013-06-16 20:36:00,77.0,67.7,29.85,WSW,254,0.0,0.0,73,0.00,,BKN031,0.01,0.00,VWS V14.01,2013-06-17 01:36:00,
2013-06-16 20:41:00,76.7,67.4,29.85,WSW,254,0.0,0.0,73,0.00,,BKN031,0.01,0.00,VWS V14.01,2013-06-17 01:41:00,
2013-06-16 20:46:00,76.5,67.6,29.85,WSW,254,0.0,0.0,74,0.00,,BKN031,0.01,0.00,VWS V14.01,2013-06-17 01:46:00,
2013-06-16 20:51:00,76.1,67.2,29.85,WSW,254,0.0,0.0,74,0.00,,BKN031,0.01,0.00,VWS V14.01,2013-06-17 01:51:00,
2013-06-16 20:56:00,76.0,67.5,29.86,WSW,254,0.0,0.0,75,0.00,,BKN031,0.01,0.00,VWS V14.01,2013-06-17 01:56:00,
2013-06-16 21:01:00,75.6,67.1,29.86,WSW,254,0.0,0.0,75,0.00,,FEW040,0.01,0.00,VWS V14.01,2013-06-17 02:01:00,
2013-06-16 21:07:00,75.3,67.2,29.86,WSW,254,0.0,0.0,76,0.00,,FEW040,0.01,0.00,VWS V14.01,2013-06-17 02:07:00,
2013-06-16 21:12:00,74.9,67.2,29.86,WSW,254,0.0,0.0,77,0.00,,FEW040,0.01,0.00,VWS V14.01,2013-06-17 02:12:00,
2013-06-16 21:17:00,74.7,67.4,29.85,WSW,254,0.0,0.0,78,0.00,,FEW040,0.01,0.00,VWS V14.01,2013-06-17 02:17:00,
2013-06-16 21:22:00,74.4,67.5,29.86,WSW,254,0.0,0.0,79,0.00,,FEW040,0.01,0.00,VWS V14.01,2013-06-17 02:22:00,
2013-06-16 21:27:00,74.2,67.6,29.86,WSW,254,0.0,0.0,80,0.00,,FEW040,0.01,0.00,VWS V14.01,2013-06-17 02:27:00,
2013-06-16 21:33:00,73.9,67.3,29.86,WSW,254,0.0,0.0,80,0.00,,FEW040,0.01,0.00,VWS V14.01,2013-06-17 02:33:00,
2013-06-16 21:38:00,73.5,67.0,29.87,WSW,254,0.0,0.0,80,0.00,,FEW040,0.01,0.00,VWS V14.01,2013-06-17 02:38:00,
2013-06-16 21:43:00,73.3,67.1,29.87,WSW,254,0.0,0.0,81,0.00,,FEW040,0.01,0.00,VWS V14.01,2013-06-17 02:43:00,
2013-06-16 21:48:00,73.2,67.4,29.87,WSW,254,0.0,0.0,82,0.00,,FEW040,0.01,0.00,VWS V14.01,2013-06-17 02:48:00,
2013-06-16 21:53:00,73.0,67.2,29.88,WSW,254,0.0,0.0,82,0.00,,FEW040,0.01,0.00,VWS V14.01,2013-06-17 02:53:00,
2013-06-16 21:58:00,73.0,67.5,29.88,WSW,254,0.0,0.0,83,0.00,,FEW040,0.01,0.00,VWS V14.01,2013-06-17 02:58:00,
2013-06-16 22:03:00,72.8,67.3,29.89,WSW,254,0.0,0.0,83,0.00,,CLR,0.01,0.00,VWS V14.01,2013-06-17 03:03:00,
2013-06-16 22:08:00,72.7,67.6,29.89,WSW,254,0.0,0.0,84,0.00,,CLR,0.01,0.00,VWS V14.01,2013-06-17 03:08:00,
2013-06-16 22:14:00,72.7,67.6,29.89,WSW,254,0.0,0.0,84,0.00,,CLR,0.01,0.00,VWS V14.01,2013-06-17 03:14:00,
2013-06-16 22:19:00,72.5,67.4,29.89,WSW,254,0.0,0.0,84,0.00,,CLR,0.01,0.00,VWS V14.01,2013-06-17 03:19:00,
2013-06-16 22:24:00,72.1,67.0,29.90,WSW,254,0.0,0.0,84,0.00,,CLR,0.01,0.00,VWS V14.01,2013-06-17 03:24:00,
2013-06-16 22:30:00,71.8,67.1,29.89,WSW,254,0.0,0.0,85,0.00,,CLR,0.01,0.00,VWS V14.01,2013-06-17 03:30:00,
2013-06-16 22:35:00,71.6,66.9,29.89,WSW,254,0.0,0.0,85,0.00,,CLR,0.01,0.00,VWS V14.01,2013-06-17 03:35:00,
2013-06-16 22:40:00,71.5,67.1,29.90,WSW,254,0.0,0.0,86,0.00,,CLR,0.01,0.00,VWS V14.01,2013-06-17 03:40:00,
2013-06-16 22:45:00,71.3,66.9,29.90,WSW,254,0.0,0.0,86,0.00,,CLR,0.01,0.00,VWS V14.01,2013-06-17 03:45:00,
2013-06-16 22:51:00,71.1,67.0,29.89,WSW,254,0.0,0.0,87,0.00,,CLR,0.01,0.00,VWS V14.01,2013-06-17 03:51:00,
2013-06-16 22:56:00,70.9,67.2,29.90,WSW,254,0.0,0.0,88,0.00,,CLR,0.01,0.00,VWS V14.01,2013-06-17 03:56:00,
2013-06-16 23:01:00,70.9,67.2,29.90,WSW,254,0.0,0.0,88,0.00,,CLR,0.01,0.00,VWS V14.01,2013-06-17 04:01:00,
2013-06-16 23:02:00,70.9,67.2,29.90,WSW,254,0.0,0.0,88,0.00,,CLR,0.01,0.00,VWS V14.01,2013-06-17 04:02:00,
2013-06-16 23:03:00,70.8,67.1,29.90,WSW,254,0.0,0.0,88,0.00,,CLR,0.01,0.00,VWS V14.01,2013-06-17 04:03:00,
2013-06-16 23:05:00,70.8,67.1,29.90,WSW,254,0.0,0.0,88,0.00,,CLR,0.01,0.00,VWS V14.01,2013-06-17 04:05:00,
2013-06-16 23:10:00,70.8,67.1,29.90,WSW,254,0.0,0.0,88,0.00,,CLR,0.01,0.00,VWS V14.01,2013-06-17 04:10:00,
2013-06-16 23:13:00,70.6,66.9,29.90,WSW,254,0.0,0.0,88,0.00,,CLR,0.01,0.00,VWS V14.01,2013-06-17 04:13:00,
2013-06-16 23:18:00,70.6,67.2,29.89,WSW,254,0.0,0.0,89,0.00,,CLR,0.01,0.00,VWS V14.01,2013-06-17 04:18:00,
2013-06-16 23:23:00,70.4,67.0,29.89,WSW,254,0.0,0.0,89,0.00,,CLR,0.01,0.00,VWS V14.01,2013-06-17 04:23:00,
2013-06-16 23:28:00,70.3,66.9,29.90,WSW,254,0.0,0.0,89,0.00,,CLR,0.01,0.00,VWS V14.01,2013-06-17 04:28:00,
2013-06-16 23:33:00,70.3,67.2,29.90,WSW,254,0.0,0.0,90,0.00,,CLR,0.01,0.00,VWS V14.01,2013-06-17 04:33:00,
2013-06-16 23:38:00,70.1,67.0,29.89,WSW,254,0.0,0.0,90,0.00,,CLR,0.01,0.00,VWS V14.01,2013-06-17 04:38:00,
2013-06-16 23:44:00,69.9,66.8,29.89,WSW,254,0.0,0.0,90,0.00,,CLR,0.01,0.00,VWS V14.01,2013-06-17 04:44:00,
2013-06-16 23:49:00,69.9,67.2,29.90,WSW,254,0.0,0.0,91,0.00,,CLR,0.01,0.00,VWS V14.01,2013-06-17 04:49:00,
2013-06-16 23:54:00,69.9,67.2,29.90,WSW,254,0.0,0.0,91,0.00,,CLR,0.01,0.00,VWS V14.01,2013-06-17 04:54:00,
2013-06-16 23:59:00,69.8,67.1,29.89,WSW,254,0.0,0.0,91,0.00,,CLR,0.01,0.00,VWS V14.01,2013-06-17 04:59:00,